1990 PAGE (1990309N08167)


On this page: IBTrACS data - Map and Plots - Positions - Intensities - Original source data

Summary

Start Nov 5
End Dec 3
Basin WP
LMI 140 kt
Sources jtwc_wp
tokyo
cma
hko
In WMO? Yes
Previous storm 1990 MISSING (NI)
Previous in basin 1990 LOLA (WP)
Concurrent storms 1990 PAGE (WP)
1990 MIKE (WP)
1990 NELL (WP)
1990 MISSING (NI)
1990 OWEN (EP)
1990 MISSING (NI)
1991 SINA (SP)
1991 A29091 (SI)
Next in basin 1990 MIKE (WP)
Next storm 1990 MIKE (WP)

top of page IBTrACS Data: File Access

top of page HURSAT Data: File Access

Image of storm

top of page Plots:

Map of storm track will not appear if FTP is down
Time series of cyclone Maximum Sustained Wind will not appear if FTP is down
Time series of cyclone Minimum Central Pressure will not appear if FTP is down

top of page Track Data:Position

jtwc_wp tokyo cma hko
Date Lat Lon Lat Lon Lat Lon Lat Lon
1990-11-05 06:00:00 8.0 167.0
1990-11-05 12:00:00 8.2 166.7
1990-11-05 18:00:00 8.4 166.4
1990-11-06 00:00:00 8.6 166.2
1990-11-06 06:00:00 8.8 166.0
1990-11-06 12:00:00 9.0 165.8
1990-11-06 18:00:00 9.2 165.6
1990-11-07 00:00:00 9.4 165.4
1990-11-07 06:00:00 9.6 165.2
1990-11-07 12:00:00 9.7 165.0
1990-11-07 18:00:00 9.8 164.8
1990-11-08 00:00:00 9.9 164.6
1990-11-08 06:00:00 10.0 164.4
1990-11-08 12:00:00 10.1 164.4
1990-11-08 18:00:00 10.2 164.0
1990-11-09 00:00:00 10.3 163.8
1990-11-09 06:00:00 10.4 163.6
1990-11-09 12:00:00 10.5 163.4
1990-11-09 18:00:00 10.6 163.2
1990-11-10 00:00:00 10.7 163.0
1990-11-10 06:00:00 10.8 162.8
1990-11-10 12:00:00 10.9 162.6
1990-11-10 18:00:00 11.0 162.4
1990-11-11 00:00:00 11.1 162.2
1990-11-11 06:00:00 11.1 162.0
jtwc_wp tokyo cma hko
1990-11-11 12:00:00 11.1 161.8
1990-11-11 18:00:00 11.1 161.5
1990-11-12 00:00:00 11.1 161.1
1990-11-12 06:00:00 11.2 160.7
1990-11-12 12:00:00 11.2 160.2
1990-11-12 18:00:00 11.2 159.8
1990-11-13 00:00:00 11.2 159.3
1990-11-13 06:00:00 11.3 158.8
1990-11-13 12:00:00 11.3 158.3
1990-11-13 18:00:00 11.3 157.8
1990-11-14 00:00:00 11.3 157.3
1990-11-14 06:00:00 11.3 156.8
1990-11-14 12:00:00 11.3 156.3
1990-11-14 18:00:00 11.3 155.8
1990-11-15 00:00:00 11.4 155.4
1990-11-15 06:00:00 11.4 155.0
1990-11-15 12:00:00 11.4 154.6
1990-11-15 18:00:00 11.4 154.2
1990-11-16 00:00:00 11.4 153.8
1990-11-16 06:00:00 11.4 153.5
1990-11-16 12:00:00 11.5 153.0
1990-11-16 18:00:00 11.4 152.6
1990-11-17 00:00:00 11.3 152.3
1990-11-17 06:00:00 11.0 151.8
jtwc_wp tokyo cma hko
1990-11-17 12:00:00 10.5 151.1
1990-11-17 18:00:00 10.0 149.8
1990-11-18 00:00:00 9.5 148.2
1990-11-18 06:00:00 8.9 147.0
1990-11-18 12:00:00 8.5 146.5
1990-11-18 18:00:00 8.3 145.9
1990-11-19 00:00:00 8.4 145.0
1990-11-19 06:00:00 8.2 144.0
1990-11-19 12:00:00 7.9 143.4
1990-11-19 18:00:00 7.9 143.3
1990-11-20 00:00:00 7.8 143.0
1990-11-20 06:00:00 7.7 142.8
1990-11-20 12:00:00 7.4 142.6 7.5 145.5
1990-11-20 18:00:00 7.1 143.0 8.0 145.0
1990-11-21 00:00:00 7.1 144.0 7.5 145.4 8.5 144.5
1990-11-21 06:00:00 7.5 144.9 8.2 145.3 8.5 144.5
1990-11-21 12:00:00 8.6 145.2 9.0 145.0 8.5 144.5
1990-11-21 18:00:00 9.9 144.7 9.5 144.0 9.7 144.0
1990-11-22 00:00:00 11.0 143.7 9.9 143.6 10.5 143.2
1990-11-22 06:00:00 11.6 142.5 10.2 143.3 11.3 142.6 11.9 142.8
1990-11-22 12:00:00 11.7 142.0 10.7 142.9 11.5 141.7 11.9 141.5
1990-11-22 18:00:00 11.8 141.4 11.5 142.0 11.5 141.2 11.9 140.6
1990-11-23 00:00:00 11.9 140.9 12.3 141.2 11.6 140.7 11.9 140.1
1990-11-23 06:00:00 11.9 140.1 12.5 140.5 12.0 140.7 11.9 139.7
jtwc_wp tokyo cma hko
1990-11-23 12:00:00 11.9 139.5 12.5 140.0 12.2 139.5 11.9 139.3
1990-11-23 18:00:00 11.9 138.9 12.2 138.9 12.2 138.9 11.9 138.9
1990-11-24 00:00:00 11.9 138.2 11.9 138.2 11.9 138.1 11.9 138.1
1990-11-24 06:00:00 11.9 137.4 11.9 137.4 11.9 137.4 11.8 137.3
1990-11-24 12:00:00 11.9 136.4 11.9 136.2 12.0 136.4 11.8 136.4
1990-11-24 18:00:00 11.8 135.4 11.9 135.2 12.0 135.1 11.7 135.5
1990-11-25 00:00:00 11.8 134.4 11.9 134.3 11.9 134.3 11.7 134.4
1990-11-25 06:00:00 11.8 133.4 11.9 133.4 11.8 133.5 11.7 133.4
1990-11-25 12:00:00 11.9 132.5 12.0 132.5 12.0 132.6 11.9 132.5
1990-11-25 18:00:00 12.1 131.6 12.2 131.7 12.3 131.7 12.1 131.7
1990-11-26 00:00:00 12.3 130.8 12.4 130.9 12.4 130.9 12.3 130.8
1990-11-26 06:00:00 12.6 129.9 12.6 130.0 12.6 130.0 12.7 130.0
1990-11-26 12:00:00 13.1 129.0 13.1 129.2 13.1 129.2 13.1 129.2
1990-11-26 18:00:00 13.7 128.2 13.9 128.3 13.8 128.3 13.7 128.2
1990-11-27 00:00:00 14.5 127.3 14.6 127.4 14.6 127.4 14.5 127.3
1990-11-27 06:00:00 15.4 126.6 15.5 126.7 15.5 126.7 15.4 126.7
1990-11-27 12:00:00 16.3 126.1 16.4 126.2 16.4 126.2 16.4 126.2
1990-11-27 18:00:00 17.3 126.0 17.3 125.9 17.3 125.9 17.3 126.0
1990-11-28 00:00:00 18.3 126.1 18.4 126.1 18.4 126.0 18.4 126.1
1990-11-28 06:00:00 19.5 126.6 19.5 126.4 19.5 126.4 19.5 126.5
1990-11-28 12:00:00 20.9 127.3 20.9 127.2 21.0 127.2 21.0 127.3
1990-11-28 18:00:00 22.4 128.4 22.3 128.3 22.6 128.4 22.4 128.4
1990-11-29 00:00:00 24.1 129.6 23.8 129.4 24.2 130.2 24.0 129.6
1990-11-29 06:00:00 25.9 131.0 25.4 130.6 25.4 131.4 25.9 131.0
jtwc_wp tokyo cma hko
1990-11-29 12:00:00 27.7 132.5 27.6 132.2 27.7 132.7 28.0 132.6
1990-11-29 18:00:00 29.5 133.9 29.7 133.9 29.5 134.1 30.0 134.1
1990-11-30 00:00:00 31.6 135.0 31.7 135.0 31.8 135.2 31.8 135.1
1990-11-30 06:00:00 33.4 136.4 33.6 135.8 33.5 136.1 33.6 135.8
1990-11-30 12:00:00 35.2 138.2 36.0 137.0 35.9 136.7 35.6 137.1
1990-11-30 18:00:00 37.2 140.2 39.0 139.0 39.0 138.1
1990-12-01 00:00:00 39.4 141.2 41.0 140.0
1990-12-01 06:00:00 43.0 142.0
1990-12-01 12:00:00 45.0 144.0
1990-12-01 18:00:00 47.0 146.0
1990-12-02 00:00:00 49.0 148.0
1990-12-02 06:00:00 51.0 150.0
1990-12-02 12:00:00 52.0 152.0
1990-12-02 18:00:00 53.0 153.0
1990-12-03 00:00:00 54.0 154.0
1990-12-03 06:00:00 54.0 155.0
1990-12-03 12:00:00 54.0 156.0

top of pageTrack Data:Intensity

jtwc_wp tokyo cma hko
Date Wind Pres Wind Pres Wind Pres Wind Pres
1990-11-05 06:00:00 15.
1990-11-05 12:00:00 15.
1990-11-05 18:00:00 15.
1990-11-06 00:00:00 15.
1990-11-06 06:00:00 20.
1990-11-06 12:00:00 20.
1990-11-06 18:00:00 20.
1990-11-07 00:00:00 20.
1990-11-07 06:00:00 20.
1990-11-07 12:00:00 20.
1990-11-07 18:00:00 20.
1990-11-08 00:00:00 20.
1990-11-08 06:00:00 20.
1990-11-08 12:00:00 20.
1990-11-08 18:00:00 20.
1990-11-09 00:00:00 20.
1990-11-09 06:00:00 20.
1990-11-09 12:00:00 20.
1990-11-09 18:00:00 20.
1990-11-10 00:00:00 20.
1990-11-10 06:00:00 20.
1990-11-10 12:00:00 20.
1990-11-10 18:00:00 20.
1990-11-11 00:00:00 20.
1990-11-11 06:00:00 20.
jtwc_wp tokyo cma hko
1990-11-11 12:00:00 20.
1990-11-11 18:00:00 20.
1990-11-12 00:00:00 20.
1990-11-12 06:00:00 20.
1990-11-12 12:00:00 20.
1990-11-12 18:00:00 20.
1990-11-13 00:00:00 20.
1990-11-13 06:00:00 20.
1990-11-13 12:00:00 20.
1990-11-13 18:00:00 20.
1990-11-14 00:00:00 20.
1990-11-14 06:00:00 20.
1990-11-14 12:00:00 20.
1990-11-14 18:00:00 20.
1990-11-15 00:00:00 20.
1990-11-15 06:00:00 20.
1990-11-15 12:00:00 20.
1990-11-15 18:00:00 20.
1990-11-16 00:00:00 20.
1990-11-16 06:00:00 25.
1990-11-16 12:00:00 25.
1990-11-16 18:00:00 25.
1990-11-17 00:00:00 25.
1990-11-17 06:00:00 25.
jtwc_wp tokyo cma hko
1990-11-17 12:00:00 25.
1990-11-17 18:00:00 25.
1990-11-18 00:00:00 25.
1990-11-18 06:00:00 25.
1990-11-18 12:00:00 25.
1990-11-18 18:00:00 25.
1990-11-19 00:00:00 30.
1990-11-19 06:00:00 30.
1990-11-19 12:00:00 25.
1990-11-19 18:00:00 25.
1990-11-20 00:00:00 30.
1990-11-20 06:00:00 30.
1990-11-20 12:00:00 30. 19. 1004.
1990-11-20 18:00:00 30. 23. 1002.
1990-11-21 00:00:00 25. 1000. 29. 1000.
1990-11-21 06:00:00 25. 1000. 29. 1000.
1990-11-21 12:00:00 25. 1000. 29. 1000.
1990-11-21 18:00:00 25. 1000. 29. 1000.
1990-11-22 00:00:00 35. 1000. 29. 1000.
1990-11-22 06:00:00 40. 35. 998. 29. 1000. 25. 995.
1990-11-22 12:00:00 40. 40. 996. 39. 995. 25. 995.
1990-11-22 18:00:00 40. 45. 992. 39. 990. 25. 995.
1990-11-23 00:00:00 40. 50. 990. 39. 990. 30. 990.
1990-11-23 06:00:00 40. 55. 985. 49. 985. 35. 985.
jtwc_wp tokyo cma hko
1990-11-23 12:00:00 45. 55. 985. 49. 985. 40. 980.
1990-11-23 18:00:00 50. 55. 980. 58. 980. 50. 975.
1990-11-24 00:00:00 60. 60. 975. 68. 980. 50. 975.
1990-11-24 06:00:00 70. 60. 975. 68. 970. 55. 970.
1990-11-24 12:00:00 70. 70. 965. 68. 970. 65. 965.
1990-11-24 18:00:00 75. 70. 965. 78. 965. 70. 960.
1990-11-25 00:00:00 85. 75. 960. 78. 965. 75. 955.
1990-11-25 06:00:00 100. 80. 950. 87. 960. 85. 950.
1990-11-25 12:00:00 115. 85. 940. 87. 955. 95. 940.
1990-11-25 18:00:00 115. 90. 935. 97. 945. 100. 930.
1990-11-26 00:00:00 120. 95. 930. 107. 935. 110. 920.
1990-11-26 06:00:00 130. 100. 920. 107. 930. 120. 910.
1990-11-26 12:00:00 140. 100. 915. 107. 930. 120. 910.
1990-11-26 18:00:00 140. 100. 915. 117. 915. 115. 915.
1990-11-27 00:00:00 140. 105. 910. 117. 915. 110. 920.
1990-11-27 06:00:00 140. 105. 910. 126. 910. 105. 930.
1990-11-27 12:00:00 130. 105. 910. 126. 910. 100. 935.
1990-11-27 18:00:00 125. 100. 915. 126. 910. 90. 940.
1990-11-28 00:00:00 120. 90. 930. 117. 920. 85. 945.
1990-11-28 06:00:00 115. 90. 935. 107. 930. 80. 950.
1990-11-28 12:00:00 110. 85. 940. 97. 940. 75. 950.
1990-11-28 18:00:00 105. 85. 945. 78. 950. 65. 955.
1990-11-29 00:00:00 100. 80. 950. 68. 960. 60. 960.
1990-11-29 06:00:00 90. 75. 960. 58. 970. 55. 965.
jtwc_wp tokyo cma hko
1990-11-29 12:00:00 80. 70. 965. 49. 985. 55. 970.
1990-11-29 18:00:00 75. 65. 970. 49. 985. 55. 970.
1990-11-30 00:00:00 70. 65. 970. 49. 985. 55. 970.
1990-11-30 06:00:00 65. 55. 975. 49. 985. 45. 975.
1990-11-30 12:00:00 50. 984. 39. 990. 35. 980.
1990-11-30 18:00:00 45. 988. 29. 998.
1990-12-01 00:00:00 45. 988.
1990-12-01 06:00:00 992.
1990-12-01 12:00:00 992.
1990-12-01 18:00:00 990.
1990-12-02 00:00:00 990.
1990-12-02 06:00:00 988.
1990-12-02 12:00:00 982.
1990-12-02 18:00:00 976.
1990-12-03 00:00:00 976.
1990-12-03 06:00:00 976.
1990-12-03 12:00:00 976.

top of page Links to source data

Source Source file Format
jtwc_wp bwp291990.txt ATCF
tokyo bst_all.txt:Line=39589:PAGE:9028 JMA text table
cma CH1990BST.txt:Storm=36:Page CMA text table
hko tc-besttrack-data.txt:Line=21240:PAGE HKO Text table